sensor_id;sensor_type;location;lat;lon;timestamp;P1;durP1;ratioP1;P2;durP2;ratioP2
59442;SDS011;45247;47.466;19.004;2024-03-25T00:00:22;6.22;;;2.20;;
59442;SDS011;45247;47.466;19.004;2024-03-25T00:02:53;5.40;;;2.10;;
59442;SDS011;45247;47.466;19.004;2024-03-25T00:05:21;4.63;;;2.60;;
59442;SDS011;45247;47.466;19.004;2024-03-25T00:07:53;5.68;;;2.50;;
59442;SDS011;45247;47.466;19.004;2024-03-25T00:10:21;4.32;;;2.50;;
59442;SDS011;45247;47.466;19.004;2024-03-25T00:12:47;7.47;;;2.72;;
59442;SDS011;45247;47.466;19.004;2024-03-25T00:15:20;4.00;;;2.53;;
59442;SDS011;45247;47.466;19.004;2024-03-25T00:17:51;4.55;;;2.20;;
59442;SDS011;45247;47.466;19.004;2024-03-25T00:20:18;4.07;;;2.30;;
59442;SDS011;45247;47.466;19.004;2024-03-25T00:22:45;4.40;;;2.45;;
59442;SDS011;45247;47.466;19.004;2024-03-25T00:25:12;4.40;;;2.22;;
59442;SDS011;45247;47.466;19.004;2024-03-25T00:27:38;3.05;;;2.13;;
59442;SDS011;45247;47.466;19.004;2024-03-25T00:30:06;4.95;;;2.17;;
59442;SDS011;45247;47.466;19.004;2024-03-25T00:32:36;5.43;;;2.30;;
59442;SDS011;45247;47.466;19.004;2024-03-25T00:35:04;5.40;;;2.58;;
59442;SDS011;45247;47.466;19.004;2024-03-25T00:37:30;3.67;;;2.25;;
59442;SDS011;45247;47.466;19.004;2024-03-25T00:39:58;3.15;;;1.83;;
59442;SDS011;45247;47.466;19.004;2024-03-25T00:42:24;4.18;;;1.83;;
59442;SDS011;45247;47.466;19.004;2024-03-25T00:44:51;4.15;;;2.20;;
59442;SDS011;45247;47.466;19.004;2024-03-25T00:47:17;4.32;;;2.17;;
59442;SDS011;45247;47.466;19.004;2024-03-25T00:49:45;3.05;;;2.15;;
59442;SDS011;45247;47.466;19.004;2024-03-25T00:52:11;2.92;;;2.10;;
59442;SDS011;45247;47.466;19.004;2024-03-25T00:54:39;4.50;;;2.22;;
59442;SDS011;45247;47.466;19.004;2024-03-25T00:57:05;3.67;;;2.15;;
59442;SDS011;45247;47.466;19.004;2024-03-25T00:59:33;3.90;;;2.40;;
59442;SDS011;45247;47.466;19.004;2024-03-25T01:01:59;4.68;;;2.92;;
59442;SDS011;45247;47.466;19.004;2024-03-25T01:04:27;8.07;;;3.25;;
59442;SDS011;45247;47.466;19.004;2024-03-25T01:06:54;5.90;;;3.30;;
59442;SDS011;45247;47.466;19.004;2024-03-25T01:09:22;4.50;;;2.88;;
59442;SDS011;45247;47.466;19.004;2024-03-25T01:11:48;5.85;;;2.42;;
59442;SDS011;45247;47.466;19.004;2024-03-25T01:14:15;4.32;;;2.00;;
59442;SDS011;45247;47.466;19.004;2024-03-25T01:16:41;3.90;;;2.38;;
59442;SDS011;45247;47.466;19.004;2024-03-25T01:19:08;3.63;;;2.05;;
59442;SDS011;45247;47.466;19.004;2024-03-25T01:21:34;3.97;;;2.35;;
59442;SDS011;45247;47.466;19.004;2024-03-25T01:24:03;4.15;;;2.47;;
59442;SDS011;45247;47.466;19.004;2024-03-25T01:26:30;5.50;;;2.40;;
59442;SDS011;45247;47.466;19.004;2024-03-25T01:28:57;3.90;;;2.20;;
59442;SDS011;45247;47.466;19.004;2024-03-25T01:31:23;2.55;;;1.85;;
59442;SDS011;45247;47.466;19.004;2024-03-25T01:33:50;3.10;;;1.90;;
59442;SDS011;45247;47.466;19.004;2024-03-25T01:36:16;5.85;;;1.77;;
59442;SDS011;45247;47.466;19.004;2024-03-25T01:38:44;3.38;;;2.05;;
59442;SDS011;45247;47.466;19.004;2024-03-25T01:41:11;5.25;;;2.03;;
59442;SDS011;45247;47.466;19.004;2024-03-25T01:43:40;3.90;;;2.05;;
59442;SDS011;45247;47.466;19.004;2024-03-25T01:46:06;2.70;;;1.75;;
59442;SDS011;45247;47.466;19.004;2024-03-25T01:48:34;8.25;;;2.00;;
59442;SDS011;45247;47.466;19.004;2024-03-25T01:51:00;3.53;;;1.50;;
59442;SDS011;45247;47.466;19.004;2024-03-25T01:53:29;4.28;;;2.25;;
59442;SDS011;45247;47.466;19.004;2024-03-25T01:55:56;2.50;;;1.55;;
59442;SDS011;45247;47.466;19.004;2024-03-25T01:58:26;4.00;;;1.92;;
59442;SDS011;45247;47.466;19.004;2024-03-25T02:00:52;2.70;;;1.60;;
59442;SDS011;45247;47.466;19.004;2024-03-25T02:03:20;2.97;;;1.65;;
59442;SDS011;45247;47.466;19.004;2024-03-25T02:05:50;2.75;;;1.60;;
59442;SDS011;45247;47.466;19.004;2024-03-25T02:08:19;3.00;;;1.67;;
59442;SDS011;45247;47.466;19.004;2024-03-25T02:10:46;3.35;;;1.40;;
59442;SDS011;45247;47.466;19.004;2024-03-25T02:13:14;4.88;;;2.08;;
59442;SDS011;45247;47.466;19.004;2024-03-25T02:15:42;2.33;;;1.35;;
59442;SDS011;45247;47.466;19.004;2024-03-25T02:18:09;2.03;;;1.33;;
59442;SDS011;45247;47.466;19.004;2024-03-25T02:20:35;2.80;;;1.40;;
59442;SDS011;45247;47.466;19.004;2024-03-25T02:23:03;3.42;;;1.75;;
59442;SDS011;45247;47.466;19.004;2024-03-25T02:25:29;2.33;;;1.50;;
59442;SDS011;45247;47.466;19.004;2024-03-25T02:28:00;3.40;;;1.67;;
59442;SDS011;45247;47.466;19.004;2024-03-25T02:30:26;2.45;;;1.70;;
59442;SDS011;45247;47.466;19.004;2024-03-25T02:32:54;4.22;;;1.63;;
59442;SDS011;45247;47.466;19.004;2024-03-25T02:35:20;3.17;;;1.75;;
59442;SDS011;45247;47.466;19.004;2024-03-25T02:37:49;1.63;;;1.27;;
59442;SDS011;45247;47.466;19.004;2024-03-25T02:40:16;3.75;;;1.63;;
59442;SDS011;45247;47.466;19.004;2024-03-25T02:42:44;2.97;;;1.58;;
59442;SDS011;45247;47.466;19.004;2024-03-25T02:45:12;1.58;;;1.17;;
59442;SDS011;45247;47.466;19.004;2024-03-25T02:47:39;4.45;;;1.75;;
59442;SDS011;45247;47.466;19.004;2024-03-25T02:50:06;2.40;;;1.58;;
59442;SDS011;45247;47.466;19.004;2024-03-25T02:52:33;3.47;;;1.50;;
59442;SDS011;45247;47.466;19.004;2024-03-25T02:55:00;1.90;;;1.42;;
59442;SDS011;45247;47.466;19.004;2024-03-25T02:57:27;3.22;;;1.85;;
59442;SDS011;45247;47.466;19.004;2024-03-25T02:59:53;2.05;;;1.50;;
59442;SDS011;45247;47.466;19.004;2024-03-25T03:02:21;4.45;;;1.77;;
59442;SDS011;45247;47.466;19.004;2024-03-25T03:04:47;3.17;;;1.70;;
59442;SDS011;45247;47.466;19.004;2024-03-25T03:07:14;3.30;;;1.45;;
59442;SDS011;45247;47.466;19.004;2024-03-25T03:09:40;2.17;;;1.52;;
59442;SDS011;45247;47.466;19.004;2024-03-25T03:12:08;1.83;;;1.45;;
59442;SDS011;45247;47.466;19.004;2024-03-25T03:14:34;3.22;;;1.63;;
59442;SDS011;45247;47.466;19.004;2024-03-25T03:17:01;2.60;;;1.40;;
59442;SDS011;45247;47.466;19.004;2024-03-25T03:19:31;2.00;;;1.20;;
59442;SDS011;45247;47.466;19.004;2024-03-25T03:21:59;2.75;;;1.30;;
59442;SDS011;45247;47.466;19.004;2024-03-25T03:24:25;3.78;;;2.03;;
59442;SDS011;45247;47.466;19.004;2024-03-25T03:26:52;4.55;;;2.22;;
59442;SDS011;45247;47.466;19.004;2024-03-25T03:29:18;5.28;;;1.90;;
59442;SDS011;45247;47.466;19.004;2024-03-25T03:31:45;3.47;;;2.15;;
59442;SDS011;45247;47.466;19.004;2024-03-25T03:34:11;4.15;;;2.03;;
59442;SDS011;45247;47.466;19.004;2024-03-25T03:36:39;4.25;;;2.10;;
59442;SDS011;45247;47.466;19.004;2024-03-25T03:39:06;3.95;;;2.05;;
59442;SDS011;45247;47.466;19.004;2024-03-25T03:41:35;4.78;;;2.17;;
59442;SDS011;45247;47.466;19.004;2024-03-25T03:44:01;4.15;;;1.98;;
59442;SDS011;45247;47.466;19.004;2024-03-25T03:46:28;3.42;;;2.00;;
59442;SDS011;45247;47.466;19.004;2024-03-25T03:48:54;3.40;;;2.15;;
59442;SDS011;45247;47.466;19.004;2024-03-25T03:51:22;5.32;;;2.30;;
59442;SDS011;45247;47.466;19.004;2024-03-25T03:53:49;5.40;;;2.60;;
59442;SDS011;45247;47.466;19.004;2024-03-25T03:56:16;3.20;;;2.22;;
59442;SDS011;45247;47.466;19.004;2024-03-25T03:58:42;4.22;;;2.03;;
59442;SDS011;45247;47.466;19.004;2024-03-25T04:01:18;4.78;;;2.13;;
59442;SDS011;45247;47.466;19.004;2024-03-25T04:03:44;10.23;;;2.30;;
59442;SDS011;45247;47.466;19.004;2024-03-25T04:06:12;2.45;;;1.65;;
59442;SDS011;45247;47.466;19.004;2024-03-25T04:08:39;2.30;;;1.52;;
59442;SDS011;45247;47.466;19.004;2024-03-25T04:11:08;3.13;;;1.85;;
59442;SDS011;45247;47.466;19.004;2024-03-25T04:13:35;3.97;;;1.60;;
59442;SDS011;45247;47.466;19.004;2024-03-25T04:16:03;3.13;;;1.77;;
59442;SDS011;45247;47.466;19.004;2024-03-25T04:18:30;3.50;;;1.85;;
59442;SDS011;45247;47.466;19.004;2024-03-25T04:20:58;3.38;;;2.10;;
59442;SDS011;45247;47.466;19.004;2024-03-25T04:23:24;4.10;;;1.90;;
59442;SDS011;45247;47.466;19.004;2024-03-25T04:25:51;4.80;;;2.40;;
59442;SDS011;45247;47.466;19.004;2024-03-25T04:28:20;3.83;;;2.00;;
59442;SDS011;45247;47.466;19.004;2024-03-25T04:30:51;3.08;;;1.85;;
59442;SDS011;45247;47.466;19.004;2024-03-25T04:33:17;3.90;;;2.00;;
59442;SDS011;45247;47.466;19.004;2024-03-25T04:35:45;4.18;;;2.53;;
59442;SDS011;45247;47.466;19.004;2024-03-25T04:38:12;3.00;;;1.63;;
59442;SDS011;45247;47.466;19.004;2024-03-25T04:40:38;5.55;;;2.28;;
59442;SDS011;45247;47.466;19.004;2024-03-25T04:43:04;4.05;;;2.00;;
59442;SDS011;45247;47.466;19.004;2024-03-25T04:45:32;4.60;;;1.83;;
59442;SDS011;45247;47.466;19.004;2024-03-25T04:47:58;2.63;;;1.60;;
59442;SDS011;45247;47.466;19.004;2024-03-25T04:50:24;5.75;;;2.00;;
59442;SDS011;45247;47.466;19.004;2024-03-25T04:52:50;5.40;;;2.13;;
59442;SDS011;45247;47.466;19.004;2024-03-25T04:55:16;2.95;;;1.90;;
59442;SDS011;45247;47.466;19.004;2024-03-25T04:57:43;3.03;;;1.80;;
59442;SDS011;45247;47.466;19.004;2024-03-25T05:00:09;3.42;;;1.65;;
59442;SDS011;45247;47.466;19.004;2024-03-25T05:02:38;4.75;;;2.15;;
59442;SDS011;45247;47.466;19.004;2024-03-25T05:05:04;3.72;;;2.05;;
59442;SDS011;45247;47.466;19.004;2024-03-25T05:07:31;4.93;;;2.38;;
59442;SDS011;45247;47.466;19.004;2024-03-25T05:09:57;4.97;;;1.85;;
59442;SDS011;45247;47.466;19.004;2024-03-25T05:12:23;3.95;;;1.70;;
59442;SDS011;45247;47.466;19.004;2024-03-25T05:14:50;3.30;;;2.03;;
59442;SDS011;45247;47.466;19.004;2024-03-25T05:17:16;4.68;;;1.77;;
59442;SDS011;45247;47.466;19.004;2024-03-25T05:19:43;3.38;;;1.92;;
59442;SDS011;45247;47.466;19.004;2024-03-25T05:22:10;5.20;;;2.08;;
59442;SDS011;45247;47.466;19.004;2024-03-25T05:24:36;3.22;;;1.95;;
59442;SDS011;45247;47.466;19.004;2024-03-25T05:27:02;8.57;;;2.10;;
59442;SDS011;45247;47.466;19.004;2024-03-25T05:29:28;4.88;;;2.30;;
59442;SDS011;45247;47.466;19.004;2024-03-25T05:31:55;4.55;;;2.03;;
59442;SDS011;45247;47.466;19.004;2024-03-25T05:34:23;3.42;;;1.85;;
59442;SDS011;45247;47.466;19.004;2024-03-25T05:36:50;3.53;;;2.10;;
59442;SDS011;45247;47.466;19.004;2024-03-25T05:39:17;4.07;;;1.80;;
59442;SDS011;45247;47.466;19.004;2024-03-25T05:41:44;8.57;;;2.20;;
59442;SDS011;45247;47.466;19.004;2024-03-25T05:44:10;4.15;;;2.20;;
59442;SDS011;45247;47.466;19.004;2024-03-25T05:46:36;4.35;;;2.20;;
59442;SDS011;45247;47.466;19.004;2024-03-25T05:49:02;6.32;;;2.33;;
59442;SDS011;45247;47.466;19.004;2024-03-25T05:51:29;4.05;;;2.53;;
59442;SDS011;45247;47.466;19.004;2024-03-25T05:53:57;4.65;;;2.20;;
59442;SDS011;45247;47.466;19.004;2024-03-25T05:56:23;4.55;;;2.20;;
59442;SDS011;45247;47.466;19.004;2024-03-25T05:58:49;3.50;;;2.05;;
59442;SDS011;45247;47.466;19.004;2024-03-25T06:01:15;5.45;;;2.33;;
59442;SDS011;45247;47.466;19.004;2024-03-25T06:03:41;4.80;;;2.67;;
59442;SDS011;45247;47.466;19.004;2024-03-25T06:06:08;4.78;;;2.25;;
59442;SDS011;45247;47.466;19.004;2024-03-25T06:08:34;3.72;;;2.30;;
59442;SDS011;45247;47.466;19.004;2024-03-25T06:11:02;4.32;;;2.20;;
59442;SDS011;45247;47.466;19.004;2024-03-25T06:13:28;7.80;;;2.58;;
59442;SDS011;45247;47.466;19.004;2024-03-25T06:15:54;3.28;;;2.13;;
59442;SDS011;45247;47.466;19.004;2024-03-25T06:18:20;2.75;;;1.98;;
59442;SDS011;45247;47.466;19.004;2024-03-25T06:20:47;6.90;;;2.25;;
59442;SDS011;45247;47.466;19.004;2024-03-25T06:23:21;4.05;;;2.30;;
59442;SDS011;45247;47.466;19.004;2024-03-25T06:25:49;5.03;;;1.95;;
59442;SDS011;45247;47.466;19.004;2024-03-25T06:28:20;9.20;;;2.28;;
59442;SDS011;45247;47.466;19.004;2024-03-25T06:30:47;5.25;;;2.28;;
59442;SDS011;45247;47.466;19.004;2024-03-25T06:33:32;5.75;;;2.05;;
59442;SDS011;45247;47.466;19.004;2024-03-25T06:36:17;6.20;;;2.60;;
59442;SDS011;45247;47.466;19.004;2024-03-25T06:38:43;4.20;;;2.20;;
59442;SDS011;45247;47.466;19.004;2024-03-25T06:41:09;2.80;;;1.65;;
59442;SDS011;45247;47.466;19.004;2024-03-25T06:43:37;2.63;;;1.70;;
59442;SDS011;45247;47.466;19.004;2024-03-25T06:46:04;5.97;;;2.15;;
59442;SDS011;45247;47.466;19.004;2024-03-25T06:48:30;5.55;;;1.92;;
59442;SDS011;45247;47.466;19.004;2024-03-25T06:50:57;6.25;;;2.10;;
59442;SDS011;45247;47.466;19.004;2024-03-25T06:53:24;4.05;;;2.25;;
59442;SDS011;45247;47.466;19.004;2024-03-25T06:55:51;3.60;;;1.95;;
59442;SDS011;45247;47.466;19.004;2024-03-25T06:58:18;6.03;;;1.90;;
59442;SDS011;45247;47.466;19.004;2024-03-25T07:00:47;3.28;;;1.88;;
59442;SDS011;45247;47.466;19.004;2024-03-25T07:03:14;5.20;;;1.70;;
59442;SDS011;45247;47.466;19.004;2024-03-25T07:05:40;3.03;;;1.70;;
59442;SDS011;45247;47.466;19.004;2024-03-25T07:08:08;2.13;;;1.52;;
59442;SDS011;45247;47.466;19.004;2024-03-25T07:10:37;3.70;;;1.85;;
59442;SDS011;45247;47.466;19.004;2024-03-25T07:13:04;4.45;;;2.33;;
59442;SDS011;45247;47.466;19.004;2024-03-25T07:15:31;3.03;;;1.65;;
59442;SDS011;45247;47.466;19.004;2024-03-25T07:17:58;2.95;;;1.70;;
59442;SDS011;45247;47.466;19.004;2024-03-25T07:20:25;3.97;;;1.90;;
59442;SDS011;45247;47.466;19.004;2024-03-25T07:22:52;2.70;;;1.80;;
59442;SDS011;45247;47.466;19.004;2024-03-25T07:25:18;9.27;;;2.10;;
59442;SDS011;45247;47.466;19.004;2024-03-25T07:27:44;4.30;;;2.20;;
59442;SDS011;45247;47.466;19.004;2024-03-25T07:30:11;4.32;;;1.75;;
59442;SDS011;45247;47.466;19.004;2024-03-25T07:32:38;4.90;;;1.60;;
59442;SDS011;45247;47.466;19.004;2024-03-25T07:35:07;3.78;;;1.65;;
59442;SDS011;45247;47.466;19.004;2024-03-25T07:37:33;2.45;;;1.70;;
59442;SDS011;45247;47.466;19.004;2024-03-25T07:39:59;10.63;;;2.08;;
59442;SDS011;45247;47.466;19.004;2024-03-25T07:42:26;4.78;;;1.85;;
59442;SDS011;45247;47.466;19.004;2024-03-25T07:44:52;2.92;;;1.75;;
59442;SDS011;45247;47.466;19.004;2024-03-25T07:47:18;4.82;;;1.80;;
59442;SDS011;45247;47.466;19.004;2024-03-25T07:49:45;3.00;;;2.03;;
59442;SDS011;45247;47.466;19.004;2024-03-25T07:52:12;3.33;;;1.88;;
59442;SDS011;45247;47.466;19.004;2024-03-25T07:54:39;3.92;;;1.70;;
59442;SDS011;45247;47.466;19.004;2024-03-25T07:57:05;2.97;;;1.73;;
59442;SDS011;45247;47.466;19.004;2024-03-25T07:59:31;4.10;;;2.00;;
59442;SDS011;45247;47.466;19.004;2024-03-25T08:01:57;3.10;;;2.00;;
59442;SDS011;45247;47.466;19.004;2024-03-25T08:04:24;5.22;;;1.83;;
59442;SDS011;45247;47.466;19.004;2024-03-25T08:06:50;4.15;;;2.05;;
59442;SDS011;45247;47.466;19.004;2024-03-25T08:09:17;6.10;;;2.10;;
59442;SDS011;45247;47.466;19.004;2024-03-25T08:11:43;2.65;;;1.80;;
59442;SDS011;45247;47.466;19.004;2024-03-25T08:14:10;4.30;;;1.80;;
59442;SDS011;45247;47.466;19.004;2024-03-25T08:16:38;4.03;;;2.22;;
59442;SDS011;45247;47.466;19.004;2024-03-25T08:19:04;4.65;;;1.77;;
59442;SDS011;45247;47.466;19.004;2024-03-25T08:21:30;3.03;;;1.60;;
59442;SDS011;45247;47.466;19.004;2024-03-25T08:23:56;5.30;;;2.50;;
59442;SDS011;45247;47.466;19.004;2024-03-25T08:26:24;4.68;;;2.15;;
59442;SDS011;45247;47.466;19.004;2024-03-25T08:28:50;3.90;;;2.00;;
59442;SDS011;45247;47.466;19.004;2024-03-25T08:31:17;2.97;;;1.73;;
59442;SDS011;45247;47.466;19.004;2024-03-25T08:33:43;3.80;;;2.00;;
59442;SDS011;45247;47.466;19.004;2024-03-25T08:36:09;4.05;;;1.98;;
59442;SDS011;45247;47.466;19.004;2024-03-25T08:38:35;4.82;;;2.10;;
59442;SDS011;45247;47.466;19.004;2024-03-25T08:41:02;3.45;;;2.00;;
59442;SDS011;45247;47.466;19.004;2024-03-25T08:43:30;2.78;;;1.52;;
59442;SDS011;45247;47.466;19.004;2024-03-25T08:45:56;3.60;;;1.75;;
59442;SDS011;45247;47.466;19.004;2024-03-25T08:48:22;3.22;;;1.52;;
59442;SDS011;45247;47.466;19.004;2024-03-25T08:50:48;4.43;;;1.63;;
59442;SDS011;45247;47.466;19.004;2024-03-25T08:53:15;2.95;;;1.50;;
59442;SDS011;45247;47.466;19.004;2024-03-25T08:55:43;3.25;;;1.45;;
59442;SDS011;45247;47.466;19.004;2024-03-25T08:58:11;3.08;;;1.50;;
59442;SDS011;45247;47.466;19.004;2024-03-25T09:00:40;3.22;;;1.63;;
59442;SDS011;45247;47.466;19.004;2024-03-25T09:03:06;3.35;;;1.75;;
59442;SDS011;45247;47.466;19.004;2024-03-25T09:05:32;4.13;;;1.85;;
59442;SDS011;45247;47.466;19.004;2024-03-25T09:07:59;3.08;;;1.65;;
59442;SDS011;45247;47.466;19.004;2024-03-25T09:10:25;2.70;;;1.80;;
59442;SDS011;45247;47.466;19.004;2024-03-25T09:13:10;3.45;;;1.90;;
59442;SDS011;45247;47.466;19.004;2024-03-25T09:15:36;4.78;;;1.90;;
59442;SDS011;45247;47.466;19.004;2024-03-25T09:18:04;3.35;;;1.80;;
59442;SDS011;45247;47.466;19.004;2024-03-25T09:20:30;2.85;;;1.90;;
59442;SDS011;45247;47.466;19.004;2024-03-25T09:22:56;4.65;;;1.83;;
59442;SDS011;45247;47.466;19.004;2024-03-25T09:25:23;3.83;;;1.73;;
59442;SDS011;45247;47.466;19.004;2024-03-25T09:27:49;4.03;;;1.92;;
59442;SDS011;45247;47.466;19.004;2024-03-25T09:30:16;2.25;;;1.65;;
59442;SDS011;45247;47.466;19.004;2024-03-25T09:32:44;2.80;;;1.63;;
59442;SDS011;45247;47.466;19.004;2024-03-25T09:35:12;4.78;;;1.75;;
59442;SDS011;45247;47.466;19.004;2024-03-25T09:37:38;6.93;;;1.88;;
59442;SDS011;45247;47.466;19.004;2024-03-25T09:40:04;3.67;;;1.88;;
59442;SDS011;45247;47.466;19.004;2024-03-25T09:42:33;2.30;;;1.65;;
59442;SDS011;45247;47.466;19.004;2024-03-25T09:45:05;3.88;;;1.58;;
59442;SDS011;45247;47.466;19.004;2024-03-25T09:47:34;3.20;;;1.50;;
59442;SDS011;45247;47.466;19.004;2024-03-25T09:50:02;4.13;;;1.80;;
59442;SDS011;45247;47.466;19.004;2024-03-25T09:52:31;2.45;;;1.70;;
59442;SDS011;45247;47.466;19.004;2024-03-25T09:54:57;4.13;;;1.90;;
59442;SDS011;45247;47.466;19.004;2024-03-25T09:57:23;4.40;;;1.90;;
59442;SDS011;45247;47.466;19.004;2024-03-25T09:59:51;3.38;;;1.75;;
59442;SDS011;45247;47.466;19.004;2024-03-25T10:02:18;5.88;;;1.73;;
59442;SDS011;45247;47.466;19.004;2024-03-25T10:04:46;3.15;;;1.63;;
59442;SDS011;45247;47.466;19.004;2024-03-25T10:07:20;2.67;;;1.40;;
59442;SDS011;45247;47.466;19.004;2024-03-25T10:09:49;3.53;;;1.50;;
59442;SDS011;45247;47.466;19.004;2024-03-25T10:12:15;2.92;;;1.40;;
59442;SDS011;45247;47.466;19.004;2024-03-25T10:14:41;2.58;;;1.50;;
59442;SDS011;45247;47.466;19.004;2024-03-25T10:17:08;2.60;;;1.50;;
59442;SDS011;45247;47.466;19.004;2024-03-25T10:19:37;2.05;;;1.48;;
59442;SDS011;45247;47.466;19.004;2024-03-25T10:22:04;2.70;;;1.60;;
59442;SDS011;45247;47.466;19.004;2024-03-25T10:24:40;5.22;;;1.83;;
59442;SDS011;45247;47.466;19.004;2024-03-25T10:27:18;3.47;;;1.77;;
59442;SDS011;45247;47.466;19.004;2024-03-25T10:29:46;3.45;;;1.80;;
59442;SDS011;45247;47.466;19.004;2024-03-25T10:32:13;2.63;;;1.67;;
59442;SDS011;45247;47.466;19.004;2024-03-25T10:34:39;3.90;;;1.83;;
59442;SDS011;45247;47.466;19.004;2024-03-25T10:37:05;2.33;;;1.25;;
59442;SDS011;45247;47.466;19.004;2024-03-25T10:39:37;4.88;;;1.70;;
59442;SDS011;45247;47.466;19.004;2024-03-25T10:42:07;2.30;;;1.35;;
59442;SDS011;45247;47.466;19.004;2024-03-25T10:44:34;3.20;;;1.55;;
59442;SDS011;45247;47.466;19.004;2024-03-25T10:47:01;4.63;;;1.60;;
59442;SDS011;45247;47.466;19.004;2024-03-25T10:49:32;6.57;;;1.80;;
59442;SDS011;45247;47.466;19.004;2024-03-25T10:52:00;2.42;;;1.58;;
59442;SDS011;45247;47.466;19.004;2024-03-25T10:54:29;1.90;;;1.40;;
59442;SDS011;45247;47.466;19.004;2024-03-25T10:56:57;1.52;;;1.23;;
59442;SDS011;45247;47.466;19.004;2024-03-25T10:59:26;5.05;;;1.50;;
59442;SDS011;45247;47.466;19.004;2024-03-25T11:01:52;2.17;;;1.38;;
59442;SDS011;45247;47.466;19.004;2024-03-25T11:04:19;2.63;;;1.65;;
59442;SDS011;45247;47.466;19.004;2024-03-25T11:06:46;2.70;;;1.73;;
59442;SDS011;45247;47.466;19.004;2024-03-25T11:09:21;5.90;;;1.80;;
59442;SDS011;45247;47.466;19.004;2024-03-25T11:11:50;3.13;;;1.60;;
59442;SDS011;45247;47.466;19.004;2024-03-25T11:14:16;4.47;;;1.30;;
59442;SDS011;45247;47.466;19.004;2024-03-25T11:16:43;3.50;;;1.45;;
59442;SDS011;45247;47.466;19.004;2024-03-25T11:19:17;2.75;;;1.40;;
59442;SDS011;45247;47.466;19.004;2024-03-25T11:21:43;2.65;;;1.42;;
59442;SDS011;45247;47.466;19.004;2024-03-25T11:24:10;1.92;;;1.50;;
59442;SDS011;45247;47.466;19.004;2024-03-25T11:26:40;5.93;;;2.00;;
59442;SDS011;45247;47.466;19.004;2024-03-25T11:29:07;3.60;;;2.00;;
59442;SDS011;45247;47.466;19.004;2024-03-25T11:31:33;2.55;;;1.60;;
59442;SDS011;45247;47.466;19.004;2024-03-25T11:34:04;2.83;;;1.70;;
59442;SDS011;45247;47.466;19.004;2024-03-25T11:36:31;4.95;;;1.73;;
59442;SDS011;45247;47.466;19.004;2024-03-25T11:38:59;3.13;;;1.70;;
59442;SDS011;45247;47.466;19.004;2024-03-25T11:41:28;3.17;;;1.60;;
59442;SDS011;45247;47.466;19.004;2024-03-25T11:43:54;2.25;;;1.30;;
59442;SDS011;45247;47.466;19.004;2024-03-25T11:46:24;2.28;;;1.55;;
59442;SDS011;45247;47.466;19.004;2024-03-25T11:48:51;2.88;;;1.45;;
59442;SDS011;45247;47.466;19.004;2024-03-25T11:51:19;1.73;;;1.30;;
59442;SDS011;45247;47.466;19.004;2024-03-25T11:53:45;4.70;;;2.17;;
59442;SDS011;45247;47.466;19.004;2024-03-25T11:56:11;5.57;;;1.90;;
59442;SDS011;45247;47.466;19.004;2024-03-25T11:58:38;4.95;;;1.50;;
59442;SDS011;45247;47.466;19.004;2024-03-25T12:01:04;3.47;;;1.90;;
59442;SDS011;45247;47.466;19.004;2024-03-25T12:03:31;6.43;;;2.13;;
59442;SDS011;45247;47.466;19.004;2024-03-25T12:05:59;5.90;;;1.98;;
59442;SDS011;45247;47.466;19.004;2024-03-25T12:08:27;4.55;;;2.00;;
59442;SDS011;45247;47.466;19.004;2024-03-25T12:10:53;2.60;;;1.70;;
59442;SDS011;45247;47.466;19.004;2024-03-25T12:13:38;2.85;;;1.60;;
59442;SDS011;45247;47.466;19.004;2024-03-25T12:16:05;5.15;;;1.70;;
59442;SDS011;45247;47.466;19.004;2024-03-25T12:18:31;2.58;;;1.50;;
59442;SDS011;45247;47.466;19.004;2024-03-25T12:20:58;3.17;;;1.65;;
59442;SDS011;45247;47.466;19.004;2024-03-25T12:23:29;5.75;;;1.40;;
59442;SDS011;45247;47.466;19.004;2024-03-25T12:25:55;6.28;;;1.90;;
59442;SDS011;45247;47.466;19.004;2024-03-25T12:28:22;4.70;;;1.60;;
59442;SDS011;45247;47.466;19.004;2024-03-25T12:30:51;2.95;;;1.23;;
59442;SDS011;45247;47.466;19.004;2024-03-25T12:33:18;3.03;;;1.30;;
59442;SDS011;45247;47.466;19.004;2024-03-25T12:35:46;2.20;;;1.30;;
59442;SDS011;45247;47.466;19.004;2024-03-25T12:38:23;1.83;;;1.15;;
59442;SDS011;45247;47.466;19.004;2024-03-25T12:40:54;2.60;;;1.70;;
59442;SDS011;45247;47.466;19.004;2024-03-25T12:43:30;5.32;;;1.30;;
59442;SDS011;45247;47.466;19.004;2024-03-25T12:45:57;2.33;;;1.58;;
59442;SDS011;45247;47.466;19.004;2024-03-25T12:48:23;2.72;;;1.60;;
59442;SDS011;45247;47.466;19.004;2024-03-25T12:50:50;2.22;;;1.45;;
59442;SDS011;45247;47.466;19.004;2024-03-25T12:53:16;5.20;;;1.55;;
59442;SDS011;45247;47.466;19.004;2024-03-25T12:55:44;2.88;;;1.63;;
59442;SDS011;45247;47.466;19.004;2024-03-25T12:58:12;2.13;;;1.50;;
59442;SDS011;45247;47.466;19.004;2024-03-25T13:00:38;2.33;;;1.70;;
59442;SDS011;45247;47.466;19.004;2024-03-25T13:03:05;2.97;;;1.60;;
59442;SDS011;45247;47.466;19.004;2024-03-25T13:05:32;3.20;;;2.10;;
59442;SDS011;45247;47.466;19.004;2024-03-25T13:07:59;3.15;;;1.60;;
59442;SDS011;45247;47.466;19.004;2024-03-25T13:10:25;4.32;;;2.15;;
59442;SDS011;45247;47.466;19.004;2024-03-25T13:12:52;3.17;;;1.95;;
59442;SDS011;45247;47.466;19.004;2024-03-25T13:15:20;5.10;;;2.05;;
59442;SDS011;45247;47.466;19.004;2024-03-25T13:17:46;2.50;;;1.13;;
59442;SDS011;45247;47.466;19.004;2024-03-25T13:20:12;3.58;;;1.48;;
59442;SDS011;45247;47.466;19.004;2024-03-25T13:22:39;3.17;;;1.40;;
59442;SDS011;45247;47.466;19.004;2024-03-25T13:25:05;2.63;;;1.35;;
59442;SDS011;45247;47.466;19.004;2024-03-25T13:27:32;3.08;;;1.67;;
59442;SDS011;45247;47.466;19.004;2024-03-25T13:29:58;2.55;;;1.50;;
59442;SDS011;45247;47.466;19.004;2024-03-25T13:32:27;8.70;;;2.03;;
59442;SDS011;45247;47.466;19.004;2024-03-25T13:34:53;3.40;;;1.85;;
59442;SDS011;45247;47.466;19.004;2024-03-25T13:37:19;3.90;;;1.65;;
59442;SDS011;45247;47.466;19.004;2024-03-25T13:39:45;4.32;;;1.85;;
59442;SDS011;45247;47.466;19.004;2024-03-25T13:42:12;4.70;;;1.65;;
59442;SDS011;45247;47.466;19.004;2024-03-25T13:44:38;4.65;;;1.83;;
59442;SDS011;45247;47.466;19.004;2024-03-25T13:47:04;3.75;;;2.10;;
59442;SDS011;45247;47.466;19.004;2024-03-25T13:49:32;4.05;;;1.90;;
59442;SDS011;45247;47.466;19.004;2024-03-25T13:51:59;4.57;;;2.05;;
59442;SDS011;45247;47.466;19.004;2024-03-25T13:54:26;3.53;;;2.08;;
59442;SDS011;45247;47.466;19.004;2024-03-25T13:56:52;4.10;;;1.65;;
59442;SDS011;45247;47.466;19.004;2024-03-25T13:59:18;1.98;;;1.67;;
59442;SDS011;45247;47.466;19.004;2024-03-25T14:01:45;3.25;;;1.52;;
59442;SDS011;45247;47.466;19.004;2024-03-25T14:04:12;2.58;;;1.50;;
59442;SDS011;45247;47.466;19.004;2024-03-25T14:06:41;2.75;;;1.42;;
59442;SDS011;45247;47.466;19.004;2024-03-25T14:09:07;3.58;;;1.58;;
59442;SDS011;45247;47.466;19.004;2024-03-25T14:11:37;2.55;;;1.60;;
59442;SDS011;45247;47.466;19.004;2024-03-25T14:14:04;3.30;;;1.75;;
59442;SDS011;45247;47.466;19.004;2024-03-25T14:16:30;2.88;;;1.60;;
59442;SDS011;45247;47.466;19.004;2024-03-25T14:18:57;2.70;;;1.50;;
59442;SDS011;45247;47.466;19.004;2024-03-25T14:21:32;5.32;;;1.60;;
59442;SDS011;45247;47.466;19.004;2024-03-25T14:24:00;3.38;;;1.45;;
59442;SDS011;45247;47.466;19.004;2024-03-25T14:26:26;6.25;;;1.60;;
59442;SDS011;45247;47.466;19.004;2024-03-25T14:28:52;1.40;;;0.98;;
59442;SDS011;45247;47.466;19.004;2024-03-25T14:31:19;3.38;;;1.40;;
59442;SDS011;45247;47.466;19.004;2024-03-25T14:33:46;2.17;;;1.30;;